Time;durP1;ratioP1;P1;durP2;ratioP2;P2;SDS_P1;SDS_P2;PMS_P1;PMS_P2;Temp;Humidity;BMP_temperature;BMP_pressure;BME280_temperature;BME280_humidity;BME280_pressure;Samples;Min_cycle;Max_cycle;Signal;HPM_P1;HPM_P2
2024/01/04 14:59:21;;;;;;;2.38;1.20;;;7.10;99.90;;;;;;7542687;19;20521;-73
2024/01/04 15:01:53;;;;;;;3.60;1.85;;;7.20;99.90;;;;;;7527573;19;20713;-73
2024/01/04 15:04:26;;;;;;;7.10;2.75;;;7.20;99.90;;;;;;7545229;19;20014;-73
2024/01/04 15:07:01;;;;;;;4.22;1.45;;;7.30;99.90;;;;;;7539177;19;20014;-74
2024/01/04 15:09:36;;;;;;;3.08;1.23;;;7.30;99.90;;;;;;7519613;19;20014;-74
2024/01/04 15:12:08;;;;;;;2.63;1.58;;;7.40;99.90;;;;;;7535582;19;20543;-73
2024/01/04 15:14:41;;;;;;;5.00;1.60;;;7.40;99.90;;;;;;7543221;19;20495;-74
2024/01/04 15:17:13;;;;;;;2.77;1.17;;;7.40;99.90;;;;;;7533545;19;20010;-73
2024/01/04 15:19:46;;;;;;;3.80;1.90;;;7.50;99.90;;;;;;7610152;19;20943;-73
2024/01/04 15:22:19;;;;;;;6.05;1.75;;;7.40;99.90;;;;;;7591300;19;20010;-73
2024/01/04 15:24:52;;;;;;;5.32;1.92;;;7.40;99.90;;;;;;7568460;19;20049;-75
2024/01/04 15:27:24;;;;;;;5.80;2.50;;;7.40;99.90;;;;;;7554512;19;20017;-74
2024/01/04 15:29:57;;;;;;;7.45;3.13;;;7.50;99.90;;;;;;7569584;19;20712;-74
2024/01/04 15:32:29;;;;;;;9.45;2.30;;;7.40;99.90;;;;;;7577859;19;20014;-73
2024/01/04 15:35:02;;;;;;;4.43;1.63;;;7.50;99.90;;;;;;7576263;19;20002;-74
2024/01/04 15:37:34;;;;;;;3.83;1.25;;;7.50;99.90;;;;;;7585426;19;20021;-74
2024/01/04 15:40:07;;;;;;;4.82;1.55;;;7.60;99.90;;;;;;7601819;19;20029;-73
2024/01/04 15:42:40;;;;;;;4.15;1.50;;;7.60;99.90;;;;;;7594606;19;20014;-73
2024/01/04 15:45:12;;;;;;;5.03;1.85;;;7.60;99.90;;;;;;7576275;19;20014;-74
2024/01/04 15:47:45;;;;;;;4.68;1.75;;;7.50;99.90;;;;;;7581492;19;20048;-74
2024/01/04 15:50:17;;;;;;;3.10;1.17;;;7.50;99.90;;;;;;7590794;19;20022;-74
2024/01/04 15:52:50;;;;;;;7.40;1.65;;;7.50;99.90;;;;;;7583151;19;20024;-73
2024/01/04 15:55:22;;;;;;;3.83;1.13;;;7.50;99.90;;;;;;7602224;19;20010;-74
2024/01/04 15:57:56;;;;;;;3.33;1.40;;;7.40;99.90;;;;;;7574584;19;20562;-74
2024/01/04 16:00:50;;;;;;;3.05;1.58;;;7.40;99.90;;;;;;7636284;19;20558;-73
2024/01/04 16:03:24;;;;;;;6.82;2.22;;;7.50;99.90;;;;;;7580315;19;20018;-74
2024/01/04 16:05:57;;;;;;;6.32;1.65;;;7.50;99.90;;;;;;7557845;19;20057;-73
2024/01/04 16:08:30;;;;;;;4.40;1.88;;;7.40;99.90;;;;;;7567108;19;20516;-74
2024/01/04 16:11:06;;;;;;;5.78;1.60;;;7.40;99.90;;;;;;7567834;19;20502;-73
2024/01/04 16:13:45;;;;;;;2.00;1.67;;;7.40;99.90;;;;;;7587208;19;20019;-73
2024/01/04 16:16:21;;;;;;;4.15;2.08;;;7.40;99.90;;;;;;7541295;19;20593;-74
2024/01/04 16:18:54;;;;;;;5.10;2.00;;;7.40;99.90;;;;;;7548860;19;20514;-73
2024/01/04 16:21:27;;;;;;;9.05;2.85;;;7.30;99.90;;;;;;7545701;19;20708;-74
2024/01/04 16:24:00;;;;;;;4.30;2.03;;;7.20;99.90;;;;;;7537101;19;20010;-73
2024/01/04 16:26:32;;;;;;;5.78;2.60;;;7.20;99.90;;;;;;7541698;19;20102;-72
2024/01/04 16:29:04;;;;;;;4.32;2.60;;;7.20;99.90;;;;;;7537922;19;20402;-74
2024/01/04 16:31:37;;;;;;;5.00;1.80;;;7.20;99.90;;;;;;7536911;19;20038;-73
2024/01/04 16:34:09;;;;;;;3.30;1.38;;;7.20;99.90;;;;;;7560351;19;20014;-74
2024/01/04 16:36:42;;;;;;;6.27;1.77;;;7.20;99.90;;;;;;7513596;19;20018;-75
2024/01/04 16:39:15;;;;;;;4.17;1.83;;;7.30;99.90;;;;;;7542208;19;20015;-72
2024/01/04 16:41:47;;;;;;;5.68;1.83;;;7.40;99.90;;;;;;7546676;19;20007;-73
2024/01/04 16:44:20;;;;;;;6.85;2.30;;;7.40;99.90;;;;;;7542825;19;20022;-74
2024/01/04 16:46:53;;;;;;;9.55;2.30;;;7.20;99.90;;;;;;7555464;19;20010;-74
2024/01/04 16:49:26;;;;;;;5.45;2.28;;;7.20;99.90;;;;;;7560248;19;20861;-74
2024/01/04 16:51:58;;;;;;;12.40;5.20;;;7.10;99.90;;;;;;7551794;19;20025;-73
2024/01/04 16:54:32;;;;;;;9.98;3.90;;;7.10;99.90;;;;;;7555204;19;25374;-74
2024/01/04 16:57:06;;;;;;;5.15;2.58;;;7.00;99.90;;;;;;7571285;19;20093;-73
2024/01/04 16:59:39;;;;;;;8.27;2.15;;;7.10;99.90;;;;;;7556727;19;20117;-72
2024/01/04 17:02:32;;;;;;;5.57;3.00;;;7.00;99.90;;;;;;7564593;19;20602;-73
2024/01/04 17:05:24;;;;;;;7.35;2.65;;;7.00;99.90;;;;;;7554391;19;20015;-75
2024/01/04 17:07:57;;;;;;;7.18;2.55;;;7.00;99.90;;;;;;7583683;19;20015;-72
2024/01/04 17:10:29;;;;;;;8.75;2.42;;;7.00;99.90;;;;;;7582855;19;20026;-72
2024/01/04 17:13:02;;;;;;;4.47;2.00;;;7.00;99.90;;;;;;7571627;19;20018;-73
2024/01/04 17:15:36;;;;;;;5.88;2.65;;;7.10;99.90;;;;;;7568686;19;20018;-73
2024/01/04 17:18:10;;;;;;;6.70;2.17;;;7.10;99.90;;;;;;7588313;19;20637;-73
2024/01/04 17:20:43;;;;;;;8.45;2.10;;;7.10;99.90;;;;;;7574835;19;20369;-73
2024/01/04 17:23:16;;;;;;;2.88;1.73;;;7.00;99.90;;;;;;7559700;19;20014;-74
2024/01/04 17:25:48;;;;;;;2.15;1.55;;;7.00;99.90;;;;;;7566776;19;20553;-74
2024/01/04 17:28:22;;;;;;;4.38;1.40;;;6.90;99.90;;;;;;7564567;19;20105;-73
2024/01/04 17:30:55;;;;;;;7.37;1.20;;;7.00;99.90;;;;;;7563096;19;20066;-73
2024/01/04 17:33:27;;;;;;;4.85;1.33;;;6.90;99.90;;;;;;7567043;19;20018;-74
2024/01/04 17:36:01;;;;;;;2.90;1.50;;;6.90;99.90;;;;;;7563795;19;20014;-74
2024/01/04 17:38:54;;;;;;;4.93;1.90;;;6.80;99.90;;;;;;7568650;19;20271;-74
2024/01/04 17:41:27;;;;;;;5.30;1.92;;;6.80;99.90;;;;;;7536539;19;20018;-74
2024/01/04 17:44:00;;;;;;;5.10;1.98;;;6.80;99.90;;;;;;7556827;19;20018;-74
2024/01/04 17:46:33;;;;;;;5.60;1.47;;;6.80;99.90;;;;;;7560474;19;20480;-75
2024/01/04 17:49:05;;;;;;;3.72;1.67;;;6.80;99.90;;;;;;7539852;19;20271;-74
2024/01/04 17:51:38;;;;;;;5.25;1.77;;;6.80;99.90;;;;;;7566164;19;20022;-74
2024/01/04 17:54:11;;;;;;;9.20;2.38;;;6.80;99.90;;;;;;7550696;19;20025;-74
2024/01/04 17:56:44;;;;;;;4.30;1.87;;;6.80;99.90;;;;;;7547865;19;20014;-75
2024/01/04 17:59:19;;;;;;;4.82;1.77;;;6.80;99.90;;;;;;7556727;19;20014;-74
2024/01/04 18:01:51;;;;;;;6.32;1.83;;;6.70;99.90;;;;;;7551734;19;20920;-75
2024/01/04 18:04:23;;;;;;;2.75;1.58;;;6.80;99.90;;;;;;7557703;19;20026;-73
2024/01/04 18:06:56;;;;;;;3.50;1.50;;;6.70;99.90;;;;;;7571759;19;20040;-74
2024/01/04 18:09:28;;;;;;;4.40;1.67;;;6.70;99.90;;;;;;7535751;19;20064;-73
2024/01/04 18:12:00;;;;;;;6.18;1.90;;;6.70;99.90;;;;;;7557253;19;20022;-73
2024/01/04 18:14:36;;;;;;;7.67;2.50;;;6.70;99.90;;;;;;7554117;19;20286;-74
2024/01/04 18:17:10;;;;;;;7.38;2.72;;;6.70;99.90;;;;;;7547622;19;20424;-74
2024/01/04 18:19:42;;;;;;;7.60;1.98;;;6.70;99.90;;;;;;7535771;19;20094;-74
2024/01/04 18:22:15;;;;;;;8.13;2.97;;;6.70;99.90;;;;;;7576040;19;20535;-77
2024/01/04 18:24:47;;;;;;;7.40;3.38;;;6.70;99.90;;;;;;7555078;19;20097;-75
2024/01/04 18:27:19;;;;;;;9.00;3.13;;;6.70;99.90;;;;;;7573936;19;20019;-74
2024/01/04 18:29:52;;;;;;;7.30;2.35;;;6.70;99.90;;;;;;7558182;19;20722;-74
2024/01/04 18:32:24;;;;;;;8.38;2.35;;;6.70;99.90;;;;;;7550649;19;20568;-76
2024/01/04 18:34:56;;;;;;;4.38;1.67;;;6.70;99.90;;;;;;7569737;19;20014;-75
2024/01/04 18:37:29;;;;;;;7.35;1.70;;;6.60;99.90;;;;;;7552725;19;20102;-73
2024/01/04 18:40:02;;;;;;;6.57;2.07;;;6.70;99.90;;;;;;7562386;19;20394;-75
2024/01/04 18:42:36;;;;;;;3.72;1.40;;;6.70;99.90;;;;;;7560471;19;20015;-74
2024/01/04 18:45:12;;;;;;;7.45;1.77;;;6.60;99.90;;;;;;7532448;19;20614;-75
2024/01/04 18:47:44;;;;;;;4.50;2.05;;;6.60;99.90;;;;;;7556113;19;20631;-75
2024/01/04 18:50:17;;;;;;;3.28;1.52;;;6.60;99.90;;;;;;7568708;19;20014;-75
2024/01/04 18:52:54;;;;;;;9.75;2.08;;;6.60;99.90;;;;;;7569781;19;20564;-74
2024/01/04 18:55:28;;;;;;;7.65;1.83;;;6.60;99.90;;;;;;7571072;19;20559;-75
2024/01/04 18:58:01;;;;;;;4.38;1.63;;;6.50;99.90;;;;;;7570898;19;20077;-75
2024/01/04 19:00:33;;;;;;;4.77;1.83;;;6.50;99.90;;;;;;7061212;19;10000632;-75
2024/01/04 19:03:18;;;;;;;8.52;1.80;;;6.50;99.90;;;;;;7058234;19;10000178;-74
2024/01/04 19:05:51;;;;;;;3.17;1.50;;;6.50;99.90;;;;;;7564184;19;20044;-76
2024/01/04 19:08:27;;;;;;;7.28;2.25;;;6.50;99.90;;;;;;7573373;19;20022;-75
2024/01/04 19:10:59;;;;;;;10.70;2.83;;;6.50;99.90;;;;;;7561473;19;20025;-75
2024/01/04 19:13:31;;;;;;;10.57;2.38;;;6.50;99.90;;;;;;7562615;19;20327;-74
2024/01/04 19:16:04;;;;;;;7.05;2.03;;;6.50;99.90;;;;;;7575021;19;20014;-74
2024/01/04 19:18:43;;;;;;;7.85;2.78;;;6.40;99.90;;;;;;7562454;19;20478;-75
2024/01/04 19:21:18;;;;;;;6.65;3.03;;;6.50;99.90;;;;;;7559957;19;20018;-75
2024/01/04 19:23:50;;;;;;;9.38;3.33;;;6.50;99.90;;;;;;7574811;19;20014;-75
2024/01/04 19:26:23;;;;;;;7.95;2.80;;;6.60;99.90;;;;;;7568634;19;20780;-75
2024/01/04 19:28:55;;;;;;;10.73;3.63;;;6.60;99.90;;;;;;7573609;19;20018;-75
2024/01/04 19:31:28;;;;;;;3.83;2.42;;;6.50;99.90;;;;;;7566748;19;20469;-76
2024/01/04 19:34:01;;;;;;;6.53;2.35;;;6.50;99.90;;;;;;7574299;19;20707;-76
2024/01/04 19:36:33;;;;;;;9.60;2.60;;;6.50;99.90;;;;;;7570437;19;20652;-75
2024/01/04 19:39:07;;;;;;;10.75;2.30;;;6.40;99.90;;;;;;7556105;19;20010;-75
2024/01/04 19:41:40;;;;;;;7.05;2.47;;;6.50;99.90;;;;;;7555706;19;20026;-76
2024/01/04 19:44:13;;;;;;;7.53;2.75;;;6.60;99.90;;;;;;7549977;19;20427;-75
2024/01/04 19:46:47;;;;;;;4.70;2.20;;;6.60;99.90;;;;;;7563194;19;20054;-75
2024/01/04 19:49:22;;;;;;;10.90;2.90;;;6.50;99.90;;;;;;7536523;19;20015;-75
2024/01/04 19:51:56;;;;;;;7.97;3.08;;;6.60;99.90;;;;;;7522663;19;20025;-75
2024/01/04 19:54:29;;;;;;;17.17;4.05;;;6.50;99.90;;;;;;7563895;19;20082;-74
2024/01/04 19:57:03;;;;;;;10.60;3.58;;;6.50;99.90;;;;;;7553997;19;20751;-74
2024/01/04 19:59:35;;;;;;;7.55;2.60;;;6.40;99.90;;;;;;7552832;19;20131;-76
2024/01/04 20:02:08;;;;;;;9.73;2.97;;;6.40;99.90;;;;;;7566907;19;20385;-77
2024/01/04 20:04:43;;;;;;;10.27;3.05;;;6.30;99.90;;;;;;7553386;19;20871;-77
2024/01/04 20:07:19;;;;;;;7.00;3.57;;;6.30;99.90;;;;;;7568724;19;20018;-76
2024/01/04 20:09:54;;;;;;;13.43;4.82;;;6.20;99.90;;;;;;7559616;19;20291;-73
2024/01/04 20:12:27;;;;;;;10.93;4.57;;;6.10;99.90;;;;;;7546542;19;20018;-75
2024/01/04 20:15:00;;;;;;;17.92;6.80;;;6.10;99.90;;;;;;7570299;19;20078;-76
2024/01/04 20:17:39;;;;;;;25.02;8.05;;;6.20;99.90;;;;;;7554647;19;20011;-74
2024/01/04 20:20:12;;;;;;;28.08;7.18;;;6.10;99.90;;;;;;7567271;19;20049;-74
2024/01/04 20:22:45;;;;;;;13.50;6.37;;;6.10;99.90;;;;;;7559696;19;20041;-75
2024/01/04 20:25:22;;;;;;;11.98;4.95;;;6.00;99.90;;;;;;7562662;19;20591;-76
2024/01/04 20:27:57;;;;;;;12.18;5.15;;;6.10;99.90;;;;;;7567511;19;20018;-75
2024/01/04 20:30:29;;;;;;;13.00;5.32;;;6.00;99.90;;;;;;7569226;19;20511;-75
2024/01/04 20:33:04;;;;;;;14.77;5.38;;;6.10;99.90;;;;;;7569837;19;20696;-77
2024/01/04 20:35:36;;;;;;;14.77;4.95;;;6.10;99.90;;;;;;7563377;19;20010;-76
2024/01/04 20:38:08;;;;;;;14.75;5.82;;;6.00;99.90;;;;;;7569029;19;20015;-76
2024/01/04 20:40:41;;;;;;;18.17;6.28;;;6.00;99.90;;;;;;7571392;19;20018;-76
2024/01/04 20:43:24;;;;;;;25.98;8.98;;;5.90;99.90;;;;;;7543753;19;20018;-74
2024/01/04 20:45:58;;;;;;;23.03;6.53;;;5.90;99.90;;;;;;7556652;19;20887;-75
2024/01/04 20:48:38;;;;;;;21.77;9.43;;;5.80;99.90;;;;;;7572753;19;20235;-76
2024/01/04 20:51:11;;;;;;;21.98;7.50;;;5.80;99.90;;;;;;7540270;19;20014;-73
2024/01/04 20:53:44;;;;;;;24.67;6.55;;;5.70;99.90;;;;;;7570201;19;20849;-75
2024/01/04 20:56:17;;;;;;;17.85;5.38;;;5.80;99.90;;;;;;7545132;19;20021;-72
2024/01/04 20:58:51;;;;;;;58.25;21.83;;;5.80;99.90;;;;;;7551085;19;22635;-76
2024/01/04 21:01:24;;;;;;;82.25;33.40;;;5.80;99.90;;;;;;7563796;19;20341;-73
2024/01/04 21:03:57;;;;;;;42.45;18.70;;;5.80;99.90;;;;;;7575807;19;20389;-73
2024/01/04 21:06:29;;;;;;;12.77;6.07;;;5.70;99.90;;;;;;7588999;19;20029;-74
2024/01/04 21:09:05;;;;;;;10.57;4.80;;;5.60;99.90;;;;;;7570823;19;21389;-73
2024/01/04 21:11:40;;;;;;;8.27;3.53;;;5.50;99.90;;;;;;7591783;19;20495;-74
2024/01/04 21:14:27;;;;;;;8.05;3.33;;;5.40;99.90;;;;;;7584942;19;20018;-73
2024/01/04 21:16:59;;;;;;;;;;;5.30;99.90;;;;;;7578914;19;20019;-75
2024/01/04 21:19:32;;;;;;;7.90;2.88;;;5.30;99.90;;;;;;7581526;19;20466;-74
2024/01/04 21:22:09;;;;;;;14.32;4.07;;;5.20;99.90;;;;;;7578505;19;21105;-74
2024/01/04 21:24:42;;;;;;;11.50;3.92;;;5.10;99.90;;;;;;7572277;19;20026;-74
2024/01/04 21:27:15;;;;;;;6.28;3.30;;;5.00;99.90;;;;;;7569321;19;20018;-74
